createdAt,value
2023-08-02T00:00:30.412Z,954.89
2023-08-02T00:01:30.413Z,954.88
2023-08-02T00:02:30.468Z,954.87
2023-08-02T00:03:30.374Z,954.87
2023-08-02T00:04:30.411Z,954.86
2023-08-02T00:05:30.369Z,954.87
2023-08-02T00:06:30.367Z,954.89
2023-08-02T00:07:30.359Z,954.85
2023-08-02T00:08:30.343Z,954.86
2023-08-02T00:09:30.328Z,954.84
2023-08-02T00:10:30.320Z,954.83
2023-08-02T00:11:30.301Z,954.85
2023-08-02T00:12:30.333Z,954.82
2023-08-02T00:13:30.265Z,954.83
2023-08-02T00:14:30.275Z,954.79
2023-08-02T00:15:30.269Z,954.76
2023-08-02T00:16:30.277Z,954.76
2023-08-02T00:17:30.294Z,954.77
2023-08-02T00:18:30.210Z,954.77
2023-08-02T00:19:30.238Z,954.77
2023-08-02T00:20:30.211Z,954.78
2023-08-02T00:21:30.177Z,954.76
2023-08-02T00:22:30.212Z,954.76
2023-08-02T00:23:30.154Z,954.72
2023-08-02T00:24:30.155Z,954.67
2023-08-02T00:25:30.162Z,954.64
2023-08-02T00:26:30.125Z,954.57
2023-08-02T00:27:30.126Z,954.54
2023-08-02T00:28:30.127Z,954.53
2023-08-02T00:29:30.101Z,954.50
2023-08-02T00:30:30.126Z,954.51
2023-08-02T00:31:30.074Z,954.50
2023-08-02T00:32:30.106Z,954.48
2023-08-02T00:33:30.058Z,954.48
2023-08-02T00:34:30.036Z,954.45
2023-08-02T00:35:30.032Z,954.42
2023-08-02T00:36:30.080Z,954.38
2023-08-02T00:37:30.039Z,954.37
2023-08-02T00:38:30.014Z,954.37
2023-08-02T00:39:29.984Z,954.38
2023-08-02T00:40:29.977Z,954.37
2023-08-02T00:41:29.952Z,954.35
2023-08-02T00:42:29.965Z,954.36
2023-08-02T00:43:29.932Z,954.36
2023-08-02T00:44:29.915Z,954.33
2023-08-02T00:45:29.915Z,954.32
2023-08-02T00:46:29.984Z,954.30
2023-08-02T00:47:30.120Z,954.30
2023-08-02T00:48:29.889Z,954.28
2023-08-02T00:49:29.853Z,954.24
2023-08-02T00:50:29.874Z,954.19
2023-08-02T00:51:29.879Z,954.16
2023-08-02T00:52:29.858Z,954.10
2023-08-02T00:53:29.872Z,954.11
2023-08-02T00:54:29.840Z,954.08
2023-08-02T00:55:29.841Z,954.07
2023-08-02T00:56:29.822Z,954.08
2023-08-02T00:57:29.843Z,954.07
2023-08-02T00:58:29.775Z,954.06
2023-08-02T00:59:29.777Z,954.03
2023-08-02T01:00:29.768Z,954.03
2023-08-02T01:01:29.826Z,954.05
2023-08-02T01:02:29.789Z,954.06
2023-08-02T01:03:29.736Z,954.09
2023-08-02T01:04:29.738Z,954.11
2023-08-02T01:05:29.724Z,954.10
2023-08-02T01:06:29.808Z,954.13
2023-08-02T01:07:29.688Z,954.20
2023-08-02T01:08:29.703Z,954.22
2023-08-02T01:09:29.727Z,954.28
2023-08-02T01:10:29.666Z,954.28
2023-08-02T01:11:29.654Z,954.34
2023-08-02T01:12:29.679Z,954.36
2023-08-02T01:13:29.644Z,954.39
2023-08-02T01:14:32.383Z,954.40
2023-08-02T01:15:29.626Z,954.40
2023-08-02T01:16:37.727Z,954.41
2023-08-02T01:17:29.737Z,954.37
2023-08-02T01:18:29.713Z,954.37
2023-08-02T01:19:29.562Z,954.35
2023-08-02T01:20:29.607Z,954.30
2023-08-02T01:21:29.582Z,954.26
2023-08-02T01:22:29.527Z,954.21
2023-08-02T01:23:29.506Z,954.17
2023-08-02T01:24:29.540Z,954.14
2023-08-02T01:25:29.532Z,954.11
2023-08-02T01:26:29.480Z,954.08
2023-08-02T01:27:29.474Z,954.04
2023-08-02T01:28:29.484Z,953.99
2023-08-02T01:29:29.471Z,954.00
2023-08-02T01:30:29.469Z,954.01
2023-08-02T01:31:29.490Z,954.02
2023-08-02T01:32:29.521Z,954.04
2023-08-02T01:33:29.412Z,954.05
2023-08-02T01:34:29.436Z,954.05
2023-08-02T01:35:29.389Z,954.06
2023-08-02T01:36:29.385Z,954.05
2023-08-02T01:37:29.378Z,954.05
2023-08-02T01:38:29.372Z,954.04
2023-08-02T01:39:29.380Z,954.04
2023-08-02T01:40:29.343Z,954.04
2023-08-02T01:41:29.319Z,954.05
2023-08-02T01:42:29.323Z,954.05
2023-08-02T01:43:29.307Z,954.06
2023-08-02T01:44:29.294Z,954.07
2023-08-02T01:45:29.316Z,954.08
2023-08-02T01:46:29.294Z,954.08
2023-08-02T01:47:29.338Z,954.09
2023-08-02T01:48:29.331Z,954.08
2023-08-02T01:49:29.311Z,954.07
2023-08-02T01:50:30.107Z,954.05
2023-08-02T01:51:29.287Z,954.04
2023-08-02T01:52:29.297Z,954.03
2023-08-02T01:53:29.256Z,954.03
2023-08-02T01:54:29.298Z,954.01
2023-08-02T01:55:29.274Z,953.98
2023-08-02T01:56:29.267Z,953.94
2023-08-02T01:57:29.232Z,953.91
2023-08-02T01:58:29.174Z,953.90
2023-08-02T01:59:29.145Z,953.90
2023-08-02T02:00:29.152Z,953.92
2023-08-02T02:01:29.134Z,953.92
2023-08-02T02:02:29.251Z,953.89
2023-08-02T02:03:29.192Z,953.88
2023-08-02T02:04:29.089Z,953.87
2023-08-02T02:05:29.066Z,953.86
2023-08-02T02:06:29.138Z,953.84
2023-08-02T02:07:29.076Z,953.80
2023-08-02T02:08:29.046Z,953.78
2023-08-02T02:09:29.041Z,953.74
2023-08-02T02:10:29.048Z,953.69
2023-08-02T02:11:28.999Z,953.63
2023-08-02T02:12:29.021Z,953.56
2023-08-02T02:13:29.026Z,953.51
2023-08-02T02:14:28.966Z,953.47
2023-08-02T02:15:29.029Z,953.44
2023-08-02T02:16:28.996Z,953.44
2023-08-02T02:17:28.994Z,953.45
2023-08-02T02:18:29.012Z,953.47
2023-08-02T02:19:28.934Z,953.47
2023-08-02T02:20:28.920Z,953.48
2023-08-02T02:21:28.980Z,953.49
2023-08-02T02:22:28.928Z,953.53
2023-08-02T02:23:28.891Z,953.54
2023-08-02T02:24:28.881Z,953.56
2023-08-02T02:25:28.937Z,953.56
2023-08-02T02:26:28.860Z,953.57
2023-08-02T02:27:28.861Z,953.56
2023-08-02T02:28:28.825Z,953.55
2023-08-02T02:29:28.818Z,953.54
2023-08-02T02:30:28.843Z,953.53
2023-08-02T02:31:28.845Z,953.51
2023-08-02T02:32:28.918Z,953.45
2023-08-02T02:33:28.780Z,953.40
2023-08-02T02:34:28.795Z,953.36
2023-08-02T02:35:28.753Z,953.34
2023-08-02T02:36:28.726Z,953.31
2023-08-02T02:37:28.734Z,953.30
2023-08-02T02:38:28.753Z,953.28
2023-08-02T02:39:28.711Z,953.25
2023-08-02T02:40:28.728Z,953.19
2023-08-02T02:41:28.710Z,953.16
2023-08-02T02:42:28.674Z,953.16
2023-08-02T02:43:28.670Z,953.16
2023-08-02T02:44:28.673Z,953.16
2023-08-02T02:45:28.661Z,953.19
2023-08-02T02:46:28.694Z,953.19
2023-08-02T02:47:28.644Z,953.16
2023-08-02T02:48:28.637Z,953.16
2023-08-02T02:49:28.616Z,953.15
2023-08-02T02:50:28.648Z,953.15
2023-08-02T02:51:28.601Z,953.15
2023-08-02T02:52:28.596Z,953.17
2023-08-02T02:53:28.581Z,953.20
2023-08-02T02:54:28.579Z,953.20
2023-08-02T02:55:28.544Z,953.19
2023-08-02T02:56:28.548Z,953.16
2023-08-02T02:57:28.539Z,953.16
2023-08-02T02:58:28.537Z,953.17
2023-08-02T02:59:28.505Z,953.15
2023-08-02T03:00:28.488Z,953.13
2023-08-02T03:01:28.484Z,953.11
2023-08-02T03:02:28.563Z,953.10
2023-08-02T03:03:28.477Z,953.09
2023-08-02T03:04:28.468Z,953.05
2023-08-02T03:05:28.510Z,953.02
2023-08-02T03:06:28.491Z,953.00
2023-08-02T03:07:28.474Z,952.99
2023-08-02T03:08:28.450Z,952.98
2023-08-02T03:09:28.400Z,952.98
2023-08-02T03:10:28.434Z,952.98
2023-08-02T03:11:28.427Z,952.98
2023-08-02T03:12:28.383Z,952.95
2023-08-02T03:13:28.345Z,952.95
2023-08-02T03:14:28.334Z,952.90
2023-08-02T03:15:28.286Z,952.88
2023-08-02T03:16:28.328Z,952.85
2023-08-02T03:17:28.360Z,952.83
2023-08-02T03:18:28.333Z,952.83
2023-08-02T03:19:28.287Z,952.77
2023-08-02T03:20:28.278Z,952.78
2023-08-02T03:21:28.299Z,952.78
2023-08-02T03:22:28.263Z,952.78
2023-08-02T03:23:28.230Z,952.76
2023-08-02T03:24:28.219Z,952.74
2023-08-02T03:25:28.233Z,952.73
2023-08-02T03:26:28.251Z,952.72
2023-08-02T03:27:28.188Z,952.73
2023-08-02T03:28:28.227Z,952.72
2023-08-02T03:29:28.207Z,952.73
2023-08-02T03:30:28.134Z,952.72
2023-08-02T03:31:28.155Z,952.69
2023-08-02T03:32:28.148Z,952.66
2023-08-02T03:33:28.084Z,952.65
2023-08-02T03:34:28.131Z,952.63
2023-08-02T03:35:28.081Z,952.63
2023-08-02T03:36:28.089Z,952.65
2023-08-02T03:37:28.045Z,952.65
2023-08-02T03:38:29.757Z,952.67
2023-08-02T03:39:28.011Z,952.64
2023-08-02T03:40:28.086Z,952.66
2023-08-02T03:41:27.990Z,952.64
2023-08-02T03:42:27.992Z,952.62
2023-08-02T03:43:27.973Z,952.63
2023-08-02T03:44:28.100Z,952.62
2023-08-02T03:45:27.959Z,952.60
2023-08-02T03:46:27.995Z,952.59
2023-08-02T03:47:27.946Z,952.58
2023-08-02T03:48:27.925Z,952.57
2023-08-02T03:49:27.954Z,952.57
2023-08-02T03:50:27.922Z,952.58
2023-08-02T03:51:27.888Z,952.57
2023-08-02T03:52:27.901Z,952.54
2023-08-02T03:53:27.882Z,952.50
2023-08-02T03:54:27.880Z,952.47
2023-08-02T03:55:27.872Z,952.43
2023-08-02T03:56:27.886Z,952.39
2023-08-02T03:57:27.839Z,952.33
2023-08-02T03:58:27.861Z,952.29
2023-08-02T03:59:27.843Z,952.24
2023-08-02T04:00:27.804Z,952.20
2023-08-02T04:01:27.875Z,952.15
2023-08-02T04:02:27.830Z,952.14
2023-08-02T04:03:27.831Z,952.14
2023-08-02T04:04:27.747Z,952.13
2023-08-02T04:05:27.756Z,952.13
2023-08-02T04:06:27.819Z,952.11
2023-08-02T04:07:27.712Z,952.10
2023-08-02T04:08:27.723Z,952.13
2023-08-02T04:09:27.763Z,952.15
2023-08-02T04:10:27.696Z,952.17
2023-08-02T04:11:27.723Z,952.18
2023-08-02T04:12:27.679Z,952.15
2023-08-02T04:13:27.699Z,952.15
2023-08-02T04:14:27.652Z,952.14
2023-08-02T04:15:27.723Z,952.12
2023-08-02T04:16:27.663Z,952.11
2023-08-02T04:17:27.733Z,952.11
2023-08-02T04:18:27.615Z,952.14
2023-08-02T04:19:27.605Z,952.09
2023-08-02T04:20:27.638Z,952.10
2023-08-02T04:21:27.673Z,952.09
2023-08-02T04:22:27.774Z,952.08
2023-08-02T04:23:27.604Z,952.09
2023-08-02T04:24:27.646Z,952.06
2023-08-02T04:25:27.544Z,952.04
2023-08-02T04:26:27.544Z,952.00
2023-08-02T04:27:27.549Z,951.98
2023-08-02T04:28:27.556Z,951.96
2023-08-02T04:29:27.493Z,951.94
2023-08-02T04:30:27.483Z,951.88
2023-08-02T04:31:27.620Z,951.87
2023-08-02T04:32:27.585Z,951.83
2023-08-02T04:33:27.446Z,951.82
2023-08-02T04:34:27.437Z,951.81
2023-08-02T04:35:27.441Z,951.79
2023-08-02T04:36:27.475Z,951.75
2023-08-02T04:37:27.469Z,951.70
2023-08-02T04:38:27.423Z,951.69
2023-08-02T04:39:27.408Z,951.68
2023-08-02T04:40:27.445Z,951.68
2023-08-02T04:41:27.394Z,951.71
2023-08-02T04:42:27.400Z,951.70
2023-08-02T04:43:27.339Z,951.70
2023-08-02T04:44:27.340Z,951.69
2023-08-02T04:45:27.349Z,951.68
2023-08-02T04:46:27.427Z,951.68
2023-08-02T04:47:27.340Z,951.69
2023-08-02T04:48:27.292Z,951.70
2023-08-02T04:49:27.314Z,951.70
2023-08-02T04:50:27.286Z,951.68
2023-08-02T04:51:27.256Z,951.65
2023-08-02T04:52:27.272Z,951.63
2023-08-02T04:53:27.229Z,951.60
2023-08-02T04:54:27.240Z,951.60
2023-08-02T04:55:27.224Z,951.58
2023-08-02T04:56:27.224Z,951.54
2023-08-02T04:57:27.215Z,951.51
2023-08-02T04:58:27.174Z,951.50
2023-08-02T04:59:27.229Z,951.49
2023-08-02T05:00:27.150Z,951.51
2023-08-02T05:01:27.186Z,951.49
2023-08-02T05:02:27.340Z,951.48
2023-08-02T05:03:27.133Z,951.47
2023-08-02T05:04:27.199Z,951.45
2023-08-02T05:05:27.143Z,951.45
2023-08-02T05:06:27.136Z,951.49
2023-08-02T05:07:27.162Z,951.51
2023-08-02T05:08:27.086Z,951.53
2023-08-02T05:09:27.119Z,951.54
2023-08-02T05:10:27.085Z,951.55
2023-08-02T05:11:27.039Z,951.56
2023-08-02T05:12:27.054Z,951.55
2023-08-02T05:13:27.049Z,951.53
2023-08-02T05:14:27.042Z,951.54
2023-08-02T05:15:27.011Z,951.48
2023-08-02T05:16:27.022Z,951.48
2023-08-02T05:17:27.004Z,951.48
2023-08-02T05:18:26.983Z,951.44
2023-08-02T05:19:26.980Z,951.44
2023-08-02T05:20:26.958Z,951.44
2023-08-02T05:21:26.987Z,951.42
2023-08-02T05:22:26.953Z,951.40
2023-08-02T05:23:26.978Z,951.38
2023-08-02T05:24:26.912Z,951.35
2023-08-02T05:25:26.929Z,951.32
2023-08-02T05:26:26.894Z,951.31
2023-08-02T05:27:26.949Z,951.30
2023-08-02T05:28:26.883Z,951.30
2023-08-02T05:29:26.867Z,951.29
2023-08-02T05:30:26.855Z,951.26
2023-08-02T05:31:26.853Z,951.24
2023-08-02T05:32:26.863Z,951.25
2023-08-02T05:33:26.796Z,951.28
2023-08-02T05:34:26.853Z,951.27
2023-08-02T05:35:26.816Z,951.26
2023-08-02T05:36:26.794Z,951.22
2023-08-02T05:37:26.846Z,951.21
2023-08-02T05:38:26.771Z,951.21
2023-08-02T05:39:26.747Z,951.21
2023-08-02T05:40:26.893Z,951.23
2023-08-02T05:41:26.775Z,951.22
2023-08-02T05:42:26.746Z,951.21
2023-08-02T05:43:26.718Z,951.20
2023-08-02T05:44:26.697Z,951.19
2023-08-02T05:45:26.759Z,951.19
2023-08-02T05:46:26.715Z,951.16
2023-08-02T05:47:26.694Z,951.11
2023-08-02T05:48:26.665Z,951.07
2023-08-02T05:49:26.672Z,951.05
2023-08-02T05:50:26.637Z,951.06
2023-08-02T05:51:26.634Z,951.05
2023-08-02T05:52:26.616Z,951.02
2023-08-02T05:53:26.667Z,950.98
2023-08-02T05:54:26.630Z,950.96
2023-08-02T05:55:26.610Z,950.93
2023-08-02T05:56:26.612Z,950.90
2023-08-02T05:57:26.563Z,950.91
2023-08-02T05:58:26.576Z,950.95
2023-08-02T05:59:26.547Z,950.94
2023-08-02T06:00:26.558Z,951.02
2023-08-02T06:01:26.618Z,950.98
2023-08-02T06:02:26.562Z,950.97
2023-08-02T06:03:26.539Z,950.98
2023-08-02T06:04:26.537Z,951.04
2023-08-02T06:05:26.483Z,951.01
2023-08-02T06:06:26.544Z,950.98
2023-08-02T06:07:26.483Z,950.99
2023-08-02T06:08:26.452Z,950.96
2023-08-02T06:09:26.474Z,950.93
2023-08-02T06:10:26.425Z,950.95
2023-08-02T06:11:26.416Z,950.95
2023-08-02T06:12:26.500Z,950.92
2023-08-02T06:13:26.439Z,950.93
2023-08-02T06:14:26.409Z,950.92
2023-08-02T06:15:26.419Z,950.91
2023-08-02T06:16:26.468Z,950.88
2023-08-02T06:17:26.474Z,950.79
2023-08-02T06:18:26.348Z,950.77
2023-08-02T06:19:26.456Z,950.79
2023-08-02T06:20:26.338Z,950.81
2023-08-02T06:21:26.314Z,950.81
2023-08-02T06:22:26.291Z,950.79
2023-08-02T06:23:26.316Z,950.77
2023-08-02T06:24:26.281Z,950.72
2023-08-02T06:25:26.258Z,950.69
2023-08-02T06:26:26.235Z,950.67
2023-08-02T06:27:26.249Z,950.68
2023-08-02T06:28:26.273Z,950.68
2023-08-02T06:29:26.237Z,950.66
2023-08-02T06:30:26.205Z,950.63
2023-08-02T06:31:26.269Z,950.63
2023-08-02T06:32:26.265Z,950.61
2023-08-02T06:33:26.303Z,950.56
2023-08-02T06:34:26.182Z,950.57
2023-08-02T06:35:26.157Z,950.52
2023-08-02T06:36:26.181Z,950.50
2023-08-02T06:37:26.155Z,950.49
2023-08-02T06:38:26.146Z,950.51
2023-08-02T06:39:26.124Z,950.50
2023-08-02T06:40:26.102Z,950.44
2023-08-02T06:41:26.106Z,950.43
2023-08-02T06:42:26.180Z,950.39
2023-08-02T06:43:26.100Z,950.38
2023-08-02T06:44:26.095Z,950.35
2023-08-02T06:45:26.070Z,950.36
2023-08-02T06:46:26.227Z,950.36
2023-08-02T06:47:26.049Z,950.31
2023-08-02T06:48:26.031Z,950.28
2023-08-02T06:49:26.096Z,950.28
2023-08-02T06:50:26.005Z,950.26
2023-08-02T06:51:26.004Z,950.23
2023-08-02T06:52:25.963Z,950.22
2023-08-02T06:53:25.978Z,950.24
2023-08-02T06:54:25.953Z,950.22
2023-08-02T06:55:25.960Z,950.21
2023-08-02T06:56:25.954Z,950.22
2023-08-02T06:57:25.953Z,950.23
2023-08-02T06:58:25.902Z,950.22
2023-08-02T06:59:26.914Z,950.22
2023-08-02T07:00:25.935Z,950.25
2023-08-02T07:01:25.957Z,950.25
2023-08-02T07:02:25.931Z,950.23
2023-08-02T07:03:25.889Z,950.20
2023-08-02T07:04:25.924Z,950.20
2023-08-02T07:05:25.868Z,950.18
2023-08-02T07:06:25.904Z,950.22
2023-08-02T07:07:25.814Z,950.23
2023-08-02T07:08:25.814Z,950.24
2023-08-02T07:09:25.864Z,950.22
2023-08-02T07:10:25.796Z,950.23
2023-08-02T07:11:35.703Z,950.23
2023-08-02T07:12:25.757Z,950.24
2023-08-02T07:13:25.755Z,950.23
2023-08-02T07:14:25.777Z,950.27
2023-08-02T07:15:25.763Z,950.24
2023-08-02T07:16:25.822Z,950.22
2023-08-02T07:17:25.743Z,950.22
2023-08-02T07:18:25.699Z,950.21
2023-08-02T07:19:25.715Z,950.16
2023-08-02T07:20:25.689Z,950.10
2023-08-02T07:21:25.700Z,950.12
2023-08-02T07:22:25.676Z,950.07
2023-08-02T07:23:25.654Z,950.09
2023-08-02T07:24:25.635Z,950.05
2023-08-02T07:25:25.628Z,950.07
2023-08-02T07:26:25.644Z,950.05
2023-08-02T07:27:25.668Z,950.03
2023-08-02T07:28:25.608Z,950.04
2023-08-02T07:29:25.601Z,950.01
2023-08-02T07:30:25.578Z,950.01
2023-08-02T07:31:25.660Z,949.96
2023-08-02T07:32:25.633Z,949.92
2023-08-02T07:33:25.584Z,949.88
2023-08-02T07:34:25.548Z,949.88
2023-08-02T07:35:25.535Z,949.86
2023-08-02T07:36:25.495Z,949.88
2023-08-02T07:37:25.523Z,949.87
2023-08-02T07:38:25.559Z,949.86
2023-08-02T07:39:25.478Z,949.85
2023-08-02T07:40:25.463Z,949.84
2023-08-02T07:41:25.613Z,949.78
2023-08-02T07:42:25.538Z,949.77
2023-08-02T07:43:26.150Z,949.75
2023-08-02T07:44:25.475Z,949.76
2023-08-02T07:45:25.457Z,949.75
2023-08-02T07:46:25.462Z,949.72
2023-08-02T07:47:25.462Z,949.71
2023-08-02T07:48:25.381Z,949.73
2023-08-02T07:49:25.379Z,949.73
2023-08-02T07:50:25.365Z,949.75
2023-08-02T07:51:25.410Z,949.71
2023-08-02T07:52:25.348Z,949.70
2023-08-02T07:53:25.356Z,949.70
2023-08-02T07:54:25.316Z,949.77
2023-08-02T07:55:25.321Z,949.74
2023-08-02T07:56:25.335Z,949.72
2023-08-02T07:57:25.605Z,949.67
2023-08-02T07:58:25.276Z,949.65
2023-08-02T07:59:25.274Z,949.63
2023-08-02T08:00:25.335Z,949.58
2023-08-02T08:01:25.295Z,949.59
2023-08-02T08:02:25.315Z,949.58
2023-08-02T08:03:25.230Z,949.57
2023-08-02T08:04:25.246Z,949.54
2023-08-02T08:05:25.205Z,949.54
2023-08-02T08:06:25.354Z,949.51
2023-08-02T08:07:25.202Z,949.48
2023-08-02T08:08:25.175Z,949.49
2023-08-02T08:09:25.164Z,949.47
2023-08-02T08:10:25.162Z,949.53
2023-08-02T08:11:25.140Z,949.53
2023-08-02T08:12:25.125Z,949.52
2023-08-02T08:13:25.130Z,949.52
2023-08-02T08:14:25.114Z,949.52
2023-08-02T08:15:25.101Z,949.49
2023-08-02T08:16:25.143Z,949.44
2023-08-02T08:17:25.098Z,949.40
2023-08-02T08:18:25.063Z,949.42
2023-08-02T08:19:25.090Z,949.38
2023-08-02T08:20:25.072Z,949.37
2023-08-02T08:21:25.014Z,949.39
2023-08-02T08:22:25.039Z,949.40
2023-08-02T08:23:25.018Z,949.39
2023-08-02T08:24:25.010Z,949.37
2023-08-02T08:25:25.020Z,949.29
2023-08-02T08:26:25.004Z,949.32
2023-08-02T08:27:24.955Z,949.36
2023-08-02T08:28:24.958Z,949.33
2023-08-02T08:29:24.989Z,949.29
2023-08-02T08:30:25.010Z,949.30
2023-08-02T08:31:24.962Z,949.29
2023-08-02T08:32:25.072Z,949.30
2023-08-02T08:33:24.922Z,949.30
2023-08-02T08:34:24.920Z,949.33
2023-08-02T08:35:24.865Z,949.29
2023-08-02T08:36:24.892Z,949.30
2023-08-02T08:37:24.857Z,949.27
2023-08-02T08:38:24.883Z,949.27
2023-08-02T08:39:24.865Z,949.29
2023-08-02T08:40:24.848Z,949.27
2023-08-02T08:41:24.821Z,949.29
2023-08-02T08:42:24.844Z,949.30
2023-08-02T08:43:24.824Z,949.27
2023-08-02T08:44:24.794Z,949.28
2023-08-02T08:45:24.762Z,949.24
2023-08-02T08:46:24.832Z,949.23
2023-08-02T08:47:24.781Z,949.24
2023-08-02T08:48:24.774Z,949.22
2023-08-02T08:49:24.760Z,949.25
2023-08-02T08:50:24.829Z,949.17
2023-08-02T08:51:24.705Z,949.18
2023-08-02T08:52:24.704Z,949.23
2023-08-02T08:53:24.740Z,949.16
2023-08-02T08:54:24.689Z,949.15
2023-08-02T08:55:24.660Z,949.17
2023-08-02T08:56:24.648Z,949.10
2023-08-02T08:57:24.720Z,949.10
2023-08-02T08:58:24.659Z,949.15
2023-08-02T08:59:24.621Z,949.14
2023-08-02T09:00:24.741Z,949.10
2023-08-02T09:01:24.682Z,949.12
2023-08-02T09:02:24.640Z,949.11
2023-08-02T09:03:24.645Z,949.17
2023-08-02T09:04:24.583Z,949.11
2023-08-02T09:05:24.560Z,949.16
2023-08-02T09:06:24.606Z,949.16
2023-08-02T09:07:24.558Z,949.16
2023-08-02T09:08:24.544Z,949.08
2023-08-02T09:09:24.563Z,949.12
2023-08-02T09:10:24.529Z,949.07
2023-08-02T09:11:24.531Z,949.08
2023-08-02T09:12:24.495Z,949.06
2023-08-02T09:13:24.486Z,948.93
2023-08-02T09:14:24.487Z,948.94
2023-08-02T09:15:24.487Z,948.90
2023-08-02T09:16:24.562Z,948.93
2023-08-02T09:17:24.497Z,948.92
2023-08-02T09:18:24.444Z,948.88
2023-08-02T09:19:24.430Z,948.90
2023-08-02T09:20:24.458Z,948.87
2023-08-02T09:21:24.394Z,948.83
2023-08-02T09:22:26.369Z,948.91
2023-08-02T09:23:24.380Z,948.87
2023-08-02T09:24:24.381Z,948.83
2023-08-02T09:25:24.359Z,948.80
2023-08-02T09:26:24.344Z,948.78
2023-08-02T09:27:24.329Z,948.79
2023-08-02T09:28:24.380Z,948.79
2023-08-02T09:29:24.314Z,948.77
2023-08-02T09:30:24.289Z,948.73
2023-08-02T09:31:24.376Z,948.71
2023-08-02T09:32:24.421Z,948.80
2023-08-02T09:33:24.349Z,948.76
2023-08-02T09:34:24.280Z,948.75
2023-08-02T09:35:24.257Z,948.79
2023-08-02T09:36:24.268Z,948.75
2023-08-02T09:37:24.205Z,948.72
2023-08-02T09:38:24.202Z,948.65
2023-08-02T09:39:24.329Z,948.61
2023-08-02T09:40:24.290Z,948.59
2023-08-02T09:41:51.754Z,948.58
2023-08-02T09:42:24.185Z,948.49
2023-08-02T09:43:24.150Z,948.55
2023-08-02T09:44:24.247Z,948.51
2023-08-02T09:45:24.139Z,948.50
2023-08-02T09:46:24.175Z,948.49
2023-08-02T09:47:24.121Z,948.47
2023-08-02T09:48:24.123Z,948.49
2023-08-02T09:49:24.133Z,948.48
2023-08-02T09:50:24.088Z,948.45
2023-08-02T09:51:24.053Z,948.47
2023-08-02T09:52:24.105Z,948.47
2023-08-02T09:53:24.093Z,948.41
2023-08-02T09:54:24.036Z,948.43
2023-08-02T09:55:24.036Z,948.39
2023-08-02T09:56:24.022Z,948.40
2023-08-02T09:57:24.000Z,948.43
2023-08-02T09:58:24.012Z,948.43
2023-08-02T09:59:23.993Z,948.42
2023-08-02T10:00:24.001Z,948.44
2023-08-02T10:01:23.989Z,948.46
2023-08-02T10:02:24.041Z,948.36
2023-08-02T10:03:26.337Z,948.44
2023-08-02T10:04:23.978Z,948.39
2023-08-02T10:05:23.936Z,948.34
2023-08-02T10:06:24.033Z,948.34
2023-08-02T10:07:24.022Z,948.26
2023-08-02T10:08:23.985Z,948.21
2023-08-02T10:09:23.876Z,948.18
2023-08-02T10:10:23.878Z,948.17
2023-08-02T10:11:23.862Z,948.14
2023-08-02T10:12:23.896Z,948.18
2023-08-02T10:13:23.883Z,948.13
2023-08-02T10:14:23.830Z,948.14
2023-08-02T10:15:23.858Z,948.13
2023-08-02T10:16:24.196Z,948.06
2023-08-02T10:17:23.832Z,947.97
2023-08-02T10:18:23.887Z,947.99
2023-08-02T10:19:24.517Z,948.05
2023-08-02T10:20:23.765Z,947.96
2023-08-02T10:21:23.800Z,947.91
2023-08-02T10:22:23.797Z,947.88
2023-08-02T10:23:24.700Z,947.89
2023-08-02T10:24:23.725Z,947.86
2023-08-02T10:25:23.758Z,947.81
2023-08-02T10:26:23.706Z,947.86
2023-08-02T10:27:23.721Z,947.83
2023-08-02T10:28:23.677Z,947.84
2023-08-02T10:29:23.656Z,947.83
2023-08-02T10:30:23.674Z,947.85
2023-08-02T10:31:23.677Z,947.89
2023-08-02T10:32:23.715Z,947.86
2023-08-02T10:33:23.695Z,947.81
2023-08-02T10:34:23.643Z,947.81
2023-08-02T10:35:23.643Z,947.82
2023-08-02T10:36:23.644Z,947.77
2023-08-02T10:37:23.671Z,947.81
2023-08-02T10:38:23.564Z,947.77
2023-08-02T10:39:23.579Z,947.83
2023-08-02T10:40:23.660Z,947.87
2023-08-02T10:41:23.571Z,947.84
2023-08-02T10:42:23.545Z,947.84
2023-08-02T10:43:23.525Z,947.84
2023-08-02T10:44:23.544Z,947.82
2023-08-02T10:45:23.538Z,947.85
2023-08-02T10:46:23.607Z,947.84
2023-08-02T10:47:23.506Z,947.87
2023-08-02T10:48:23.492Z,947.84
2023-08-02T10:49:23.580Z,947.77
2023-08-02T10:50:23.502Z,947.71
2023-08-02T10:51:23.468Z,947.74
2023-08-02T10:52:23.433Z,947.66
2023-08-02T10:53:23.418Z,947.65
2023-08-02T10:54:23.700Z,947.68
2023-08-02T10:55:23.401Z,947.61
2023-08-02T10:56:23.415Z,947.57
2023-08-02T10:57:23.371Z,947.52
2023-08-02T10:58:23.391Z,947.49
2023-08-02T10:59:23.415Z,947.47
2023-08-02T11:00:23.353Z,947.50
2023-08-02T11:01:23.389Z,947.53
2023-08-02T11:02:23.341Z,947.47
2023-08-02T11:03:23.345Z,947.50
2023-08-02T11:04:23.325Z,947.50
2023-08-02T11:05:23.301Z,947.45
2023-08-02T11:06:23.365Z,947.50
2023-08-02T11:07:23.271Z,947.50
2023-08-02T11:08:23.308Z,947.47
2023-08-02T11:09:23.235Z,947.49
2023-08-02T11:10:23.221Z,947.44
2023-08-02T11:11:23.258Z,947.51
2023-08-02T11:12:23.658Z,947.53
2023-08-02T11:13:23.324Z,947.42
2023-08-02T11:14:23.192Z,947.50
2023-08-02T11:15:23.206Z,947.50
2023-08-02T11:16:23.199Z,947.53
2023-08-02T11:19:23.543Z,947.46
2023-08-02T11:20:23.352Z,947.41
2023-08-02T11:21:23.138Z,947.44
2023-08-02T11:22:23.148Z,947.37
2023-08-02T11:23:23.128Z,947.34
2023-08-02T11:24:26.943Z,947.32
2023-08-02T11:26:23.097Z,947.25
2023-08-02T11:27:23.074Z,947.19
2023-08-02T11:28:23.061Z,947.19
2023-08-02T11:29:23.041Z,947.15
2023-08-02T11:30:28.218Z,947.20
2023-08-02T11:31:23.061Z,947.18
2023-08-02T11:32:23.005Z,947.18
2023-08-02T11:33:23.010Z,947.20
2023-08-02T11:34:23.031Z,947.16
2023-08-02T11:35:22.979Z,947.15
2023-08-02T11:36:23.091Z,947.12
2023-08-02T11:37:23.030Z,947.06
2023-08-02T11:38:22.992Z,947.13
2023-08-02T11:39:22.949Z,947.10
2023-08-02T11:41:22.932Z,947.02
2023-08-02T11:42:22.958Z,947.02
2023-08-02T11:43:24.457Z,947.06
2023-08-02T11:44:22.876Z,947.06
2023-08-02T11:45:23.309Z,947.06
2023-08-02T11:46:23.110Z,947.04
2023-08-02T11:47:22.864Z,946.92
2023-08-02T11:48:22.888Z,946.90
2023-08-02T11:49:22.878Z,946.93
2023-08-02T11:50:22.880Z,946.91
2023-08-02T11:51:22.964Z,946.89
2023-08-02T11:52:22.788Z,946.97
2023-08-02T11:53:22.851Z,946.92
2023-08-02T11:54:22.848Z,946.85
2023-08-02T11:55:22.848Z,946.87
2023-08-02T11:56:22.745Z,946.93
2023-08-02T11:57:22.773Z,946.85
2023-08-02T11:58:22.840Z,946.88
2023-08-02T11:59:22.858Z,946.89
2023-08-02T12:00:22.718Z,946.85
2023-08-02T12:01:22.760Z,946.79
2023-08-02T12:02:22.737Z,946.87
2023-08-02T12:03:22.735Z,946.81
2023-08-02T12:04:22.746Z,946.90
2023-08-02T12:05:22.661Z,946.85
2023-08-02T12:06:22.764Z,946.86
2023-08-02T12:07:22.647Z,946.88
2023-08-02T12:08:22.655Z,946.87
2023-08-02T12:09:22.626Z,946.81
2023-08-02T12:10:22.591Z,946.72
2023-08-02T12:11:22.617Z,946.73
2023-08-02T12:12:22.576Z,946.59
2023-08-02T12:13:22.600Z,946.69
2023-08-02T12:14:22.557Z,946.64
2023-08-02T12:15:22.576Z,946.70
2023-08-02T12:16:22.598Z,946.73
2023-08-02T12:17:22.553Z,946.60
2023-08-02T12:18:22.562Z,946.45
2023-08-02T12:19:22.516Z,946.46
2023-08-02T12:20:22.493Z,946.50
2023-08-02T12:21:22.526Z,946.50
2023-08-02T12:22:22.493Z,946.49
2023-08-02T12:23:22.476Z,946.55
2023-08-02T12:24:22.534Z,946.55
2023-08-02T12:25:22.462Z,946.56
2023-08-02T12:26:22.415Z,946.57
2023-08-02T12:27:22.436Z,946.53
2023-08-02T12:28:22.438Z,946.48
2023-08-02T12:29:22.429Z,946.42
2023-08-02T12:30:22.425Z,946.44
2023-08-02T12:31:22.548Z,946.40
2023-08-02T12:32:22.445Z,946.37